Time;durP1;ratioP1;P1;durP2;ratioP2;P2;SDS_P1;SDS_P2;PMS_P1;PMS_P2;Temp;Humidity;BMP_temperature;BMP_pressure;BME280_temperature;BME280_humidity;BME280_pressure;Samples;Min_cycle;Max_cycle;Signal;HPM_P1;HPM_P2
2023/05/22 00:02:14;;;;;;;10.40;7.93;;;;;;;12.83;72.27;99789.06;4873537;29;20528;-83
2023/05/22 00:04:59;;;;;;;13.93;8.00;;;;;;;12.62;72.64;99775.94;4872657;29;20093;-83
2023/05/22 00:07:44;;;;;;;9.90;7.32;;;;;;;12.81;72.40;99785.81;4873608;29;20572;-82
2023/05/22 00:10:29;;;;;;;9.63;8.32;;;;;;;12.69;72.62;99768.91;4871546;29;20456;-83
2023/05/22 00:13:14;;;;;;;10.70;7.07;;;;;;;12.77;72.63;99778.47;4869684;29;20044;-82
2023/05/22 00:15:58;;;;;;;9.27;7.35;;;;;;;12.76;72.70;99775.03;4872150;29;20132;-81
2023/05/22 00:18:42;;;;;;;8.00;7.10;;;;;;;12.62;73.75;99776.75;4868849;29;20044;-81
2023/05/22 00:21:26;;;;;;;10.50;7.75;;;;;;;12.65;73.87;99775.56;4868761;29;20456;-82
2023/05/22 00:24:11;;;;;;;8.02;7.20;;;;;;;12.49;74.76;99761.66;4870730;29;20444;-83
2023/05/22 00:26:55;;;;;;;11.07;8.35;;;;;;;12.67;74.70;99773.53;4865622;29;20104;-82
2023/05/22 00:29:39;;;;;;;8.95;7.45;;;;;;;12.55;74.99;99779.34;4871890;29;20053;-82
2023/05/22 00:32:24;;;;;;;12.70;8.43;;;;;;;12.40;75.73;99784.69;4868012;29;20048;-82
2023/05/22 00:35:09;;;;;;;9.73;7.80;;;;;;;12.41;75.73;99769.69;4866348;29;20052;-82
2023/05/22 00:37:53;;;;;;;9.85;7.78;;;;;;;12.37;75.92;99779.75;4871749;29;20040;-82
2023/05/22 00:40:37;;;;;;;8.68;7.35;;;;;;;12.27;76.22;99768.75;4871407;29;20413;-83
2023/05/22 00:43:21;;;;;;;8.52;7.35;;;;;;;12.39;74.81;99761.16;4871833;29;20107;-81
2023/05/22 00:46:06;;;;;;;10.13;7.10;;;;;;;12.23;74.91;99763.03;4870477;29;20048;-84
2023/05/22 00:48:51;;;;;;;10.57;7.38;;;;;;;12.34;74.62;99748.53;4868926;29;20096;-82
2023/05/22 00:51:35;;;;;;;14.85;7.93;;;;;;;12.29;74.48;99753.56;4868893;29;20056;-83
2023/05/22 00:54:20;;;;;;;8.45;7.47;;;;;;;12.35;74.66;99749.38;4876089;29;20060;-82
2023/05/22 00:57:04;;;;;;;10.88;7.10;;;;;;;12.22;74.97;99748.25;4867662;29;20073;-83
2023/05/22 00:59:49;;;;;;;10.90;7.63;;;;;;;12.22;72.94;99745.59;4870733;29;20052;-83
2023/05/22 01:02:35;;;;;;;8.95;7.10;;;;;;;12.39;72.47;99756.72;4871680;29;20479;-84
2023/05/22 01:05:20;;;;;;;10.30;7.00;;;;;;;12.34;72.47;99747.75;4873571;29;20040;-83
2023/05/22 01:08:06;;;;;;;9.38;7.22;;;;;;;12.28;71.63;99750.13;4868754;29;20105;-85
2023/05/22 01:10:55;;;;;;;11.40;7.10;;;;;;;12.22;71.88;99745.59;4869816;29;20049;-85
2023/05/22 01:14:07;;;;;;;10.10;7.30;;;;;;;12.25;71.79;99739.16;4869845;29;20080;-85
2023/05/22 01:16:58;;;;;;;9.90;6.70;;;;;;;12.20;72.68;99737.09;4851329;29;20074;-84
2023/05/22 01:20:00;;;;;;;10.77;7.18;;;;;;;12.35;72.14;99737.00;4872622;29;20152;-85
2023/05/22 01:23:21;;;;;;;10.70;8.05;;;;;;;12.79;70.71;99732.50;4873988;29;20044;-87
2023/05/22 01:26:41;;;;;;;12.23;7.40;;;;;;;12.35;72.79;99733.59;4871286;29;20467;-85
2023/05/22 01:29:57;;;;;;;12.43;8.02;;;;;;;12.18;73.70;99738.25;4874899;29;20543;-84
2023/05/22 01:32:45;;;;;;;10.00;7.93;;;;;;;12.17;74.75;99726.94;4870830;29;20104;-84
2023/05/22 01:35:31;;;;;;;12.65;8.52;;;;;;;11.97;75.42;99714.38;4869358;29;20072;-85
2023/05/22 01:38:16;;;;;;;9.85;7.75;;;;;;;11.93;75.90;99710.50;4869360;29;20044;-83
2023/05/22 01:41:01;;;;;;;10.27;8.00;;;;;;;11.89;76.39;99711.03;4864682;29;20400;-85
2023/05/22 01:43:45;;;;;;;10.85;7.97;;;;;;;11.79;76.78;99704.28;4863372;29;20048;-84
2023/05/22 01:46:30;;;;;;;13.82;8.07;;;;;;;11.77;76.68;99690.47;4866782;29;20061;-84
2023/05/22 01:49:15;;;;;;;10.88;7.65;;;;;;;11.67;76.98;99701.28;4870253;29;20082;-83
2023/05/22 01:52:14;;;;;;;12.50;7.68;;;;;;;11.90;75.93;99713.50;4869059;29;20060;-84
2023/05/22 01:55:04;;;;;;;10.77;7.88;;;;;;;12.10;75.93;99718.97;4868961;29;20045;-83
2023/05/22 01:58:13;;;;;;;12.75;7.82;;;;;;;11.96;75.62;99714.53;4870972;29;20067;-83
2023/05/22 02:01:00;;;;;;;8.55;6.82;;;;;;;11.92;75.96;99713.28;4870754;29;20045;-83
2023/05/22 02:03:50;;;;;;;8.68;6.88;;;;;;;11.94;76.08;99719.19;4873583;29;20523;-83
2023/05/22 02:06:35;;;;;;;9.73;7.38;;;;;;;11.86;76.55;99710.41;4871816;29;20056;-83
2023/05/22 02:09:22;;;;;;;10.77;7.50;;;;;;;11.81;76.82;99712.78;4866713;29;20052;-83
2023/05/22 02:12:07;;;;;;;10.32;6.95;;;;;;;11.81;76.74;99712.78;4870414;29;20174;-84
2023/05/22 02:14:51;;;;;;;10.15;7.47;;;;;;;11.80;77.30;99711.16;4869971;29;20044;-84
2023/05/22 02:17:43;;;;;;;11.02;7.13;;;;;;;11.72;77.46;99708.63;4868287;29;20113;-84
2023/05/22 02:20:28;;;;;;;9.88;7.18;;;;;;;11.66;78.38;99715.44;4867097;29;20035;-83
2023/05/22 02:23:12;;;;;;;10.63;7.60;;;;;;;11.70;78.57;99715.91;4864164;29;20462;-84
2023/05/22 02:25:57;;;;;;;12.10;7.47;;;;;;;11.63;79.45;99712.38;4871599;29;20051;-84
2023/05/22 02:28:42;;;;;;;11.30;8.10;;;;;;;11.68;79.12;99712.63;4871222;29;20205;-83
2023/05/22 02:31:26;;;;;;;10.60;7.63;;;;;;;11.55;79.41;99700.97;4871311;29;20463;-82
2023/05/22 02:34:10;;;;;;;10.73;7.32;;;;;;;11.61;79.96;99709.94;4865853;29;20076;-84
2023/05/22 02:36:55;;;;;;;10.38;8.23;;;;;;;11.60;79.87;99718.03;4872168;29;20076;-84
2023/05/22 02:39:39;;;;;;;12.88;8.35;;;;;;;11.42;80.19;99709.50;4867353;29;20412;-83
2023/05/22 02:42:23;;;;;;;12.63;8.45;;;;;;;11.43;80.37;99707.69;4867307;29;20048;-84
2023/05/22 02:45:08;;;;;;;9.60;7.47;;;;;;;11.51;80.70;99715.47;4866374;29;20581;-82
2023/05/22 02:47:52;;;;;;;15.70;8.00;;;;;;;11.63;80.24;99702.66;4867960;29;20081;-82
2023/05/22 02:50:36;;;;;;;12.48;8.25;;;;;;;11.64;80.34;99716.66;4867980;29;20065;-83
2023/05/22 02:53:20;;;;;;;14.63;8.48;;;;;;;11.58;80.05;99697.97;4875465;29;20040;-83
2023/05/22 02:56:11;;;;;;;9.40;7.35;;;;;;;11.72;79.92;99713.88;4873099;29;21093;-84
2023/05/22 02:58:58;;;;;;;10.82;7.30;;;;;;;11.62;80.28;99692.34;4880749;29;20049;-83
2023/05/22 03:01:43;;;;;;;11.95;8.38;;;;;;;11.55;80.33;99690.44;4874394;29;20529;-83
2023/05/22 03:04:28;;;;;;;10.52;7.60;;;;;;;11.56;80.14;99704.41;4875659;29;20407;-83
2023/05/22 03:07:12;;;;;;;13.00;8.07;;;;;;;11.43;80.65;99710.34;4875351;29;20113;-82
2023/05/22 03:09:56;;;;;;;10.43;7.68;;;;;;;11.46;80.20;99704.69;4874040;29;20511;-83
2023/05/22 03:12:41;;;;;;;11.30;8.05;;;;;;;11.47;79.60;99695.81;4871470;29;20084;-83
2023/05/22 03:15:25;;;;;;;10.95;7.93;;;;;;;11.61;79.79;99701.25;4876271;29;20048;-82
2023/05/22 03:18:09;;;;;;;12.93;8.15;;;;;;;11.46;80.07;99698.63;4876102;29;20073;-82
2023/05/22 03:20:53;;;;;;;10.80;8.15;;;;;;;11.40;80.11;99692.31;4874661;29;20396;-82
2023/05/22 03:23:37;;;;;;;13.75;8.90;;;;;;;11.52;80.09;99693.44;4878790;29;20081;-83
2023/05/22 03:26:21;;;;;;;13.30;8.82;;;;;;;11.36;80.34;99693.66;4869615;29;20154;-83
2023/05/22 03:29:05;;;;;;;11.90;7.47;;;;;;;11.42;80.53;99700.81;4872664;29;20452;-84
2023/05/22 03:31:48;;;;;;;12.23;7.75;;;;;;;11.38;80.13;99684.59;4871883;29;20048;-83
2023/05/22 03:34:32;;;;;;;10.93;7.88;;;;;;;11.51;79.98;99686.56;4877623;29;20418;-83
2023/05/22 03:37:16;;;;;;;12.55;8.30;;;;;;;11.46;79.88;99694.19;4876433;29;20051;-84
2023/05/22 03:40:02;;;;;;;11.98;8.30;;;;;;;11.31;78.97;99675.81;4875149;29;20044;-83
2023/05/22 03:42:48;;;;;;;14.00;7.65;;;;;;;11.27;78.98;99664.84;4873805;29;20044;-83
2023/05/22 03:45:32;;;;;;;10.95;8.23;;;;;;;11.48;78.48;99680.84;4874440;29;20056;-83
2023/05/22 03:48:16;;;;;;;12.20;8.02;;;;;;;11.55;77.59;99687.81;4879148;29;20068;-83
2023/05/22 03:51:00;;;;;;;14.98;8.52;;;;;;;11.57;77.51;99685.00;4870724;29;20048;-83
2023/05/22 03:53:44;;;;;;;9.40;7.35;;;;;;;11.47;76.37;99673.97;4871138;29;20575;-84
2023/05/22 03:56:28;;;;;;;12.82;7.80;;;;;;;11.40;76.75;99666.03;4873157;29;20044;-84
2023/05/22 03:59:12;;;;;;;10.88;7.28;;;;;;;11.58;76.12;99679.53;4873787;29;20051;-83
2023/05/22 04:01:56;;;;;;;8.93;6.88;;;;;;;11.41;76.01;99686.03;4869846;29;20128;-83
2023/05/22 04:04:44;;;;;;;11.70;8.18;;;;;;;11.55;75.87;99693.06;4875937;29;20048;-84
2023/05/22 04:07:29;;;;;;;11.68;7.85;;;;;;;11.45;75.57;99689.94;4873646;29;20128;-84
2023/05/22 04:10:13;;;;;;;14.15;8.45;;;;;;;11.58;74.83;99684.81;4873903;29;20180;-83
2023/05/22 04:12:58;;;;;;;11.63;7.47;;;;;;;11.47;75.36;99690.56;4867146;29;20048;-83
2023/05/22 04:15:44;;;;;;;11.82;6.88;;;;;;;11.38;74.98;99694.28;4869722;29;20216;-83
2023/05/22 04:18:29;;;;;;;11.68;7.85;;;;;;;11.53;75.04;99675.88;4871603;29;20052;-82
2023/05/22 04:21:13;;;;;;;10.80;6.82;;;;;;;11.65;74.02;99691.97;4870967;29;20208;-84
2023/05/22 04:23:57;;;;;;;9.82;7.07;;;;;;;11.43;73.93;99673.53;4864822;29;20168;-83
2023/05/22 04:26:42;;;;;;;11.77;7.90;;;;;;;11.63;73.29;99688.72;4871248;29;20416;-84
2023/05/22 04:29:27;;;;;;;13.52;7.10;;;;;;;11.66;73.29;99677.81;4874650;29;20088;-83
2023/05/22 04:32:17;;;;;;;8.55;6.90;;;;;;;11.72;73.02;99671.81;4869719;29;20133;-83
2023/05/22 04:35:01;;;;;;;11.52;6.70;;;;;;;11.83;72.49;99696.81;4870782;29;20052;-83
2023/05/22 04:37:45;;;;;;;10.07;6.88;;;;;;;11.72;72.15;99679.69;4867172;29;20048;-83
2023/05/22 04:40:32;;;;;;;9.80;7.13;;;;;;;11.79;72.58;99685.03;4867341;29;20098;-83
2023/05/22 04:43:17;;;;;;;14.15;7.15;;;;;;;11.71;72.18;99688.59;4871889;29;20051;-83
2023/05/22 04:46:01;;;;;;;12.85;7.15;;;;;;;11.85;71.33;99690.38;4869081;29;20048;-83
2023/05/22 04:48:46;;;;;;;9.45;7.32;;;;;;;11.64;71.72;99679.81;4873145;29;20166;-84
2023/05/22 04:51:31;;;;;;;13.07;7.57;;;;;;;11.64;72.26;99685.09;4866630;29;20044;-83
2023/05/22 04:54:16;;;;;;;10.68;7.55;;;;;;;11.79;72.39;99683.25;4874188;29;20084;-82
2023/05/22 04:57:03;;;;;;;11.27;7.00;;;;;;;11.96;71.79;99693.50;4867817;29;20535;-82
2023/05/22 04:59:47;;;;;;;14.18;7.10;;;;;;;11.81;71.29;99680.41;4867662;29;20101;-83
2023/05/22 05:02:31;;;;;;;11.82;7.22;;;;;;;11.74;71.66;99680.31;4868575;29;20043;-85
2023/05/22 05:05:15;;;;;;;8.85;6.55;;;;;;;11.79;71.74;99693.75;4870496;29;20044;-81
2023/05/22 05:08:00;;;;;;;10.10;6.68;;;;;;;12.00;71.15;99689.50;4866921;29;20065;-82
2023/05/22 05:10:45;;;;;;;8.60;6.53;;;;;;;12.07;71.46;99698.31;4869488;29;20109;-82
2023/05/22 05:13:29;;;;;;;9.88;6.50;;;;;;;12.10;70.26;99690.03;4870779;29;20121;-83
2023/05/22 05:16:13;;;;;;;9.80;6.85;;;;;;;12.33;69.70;99699.53;4868645;29;20053;-82
2023/05/22 05:18:57;;;;;;;9.65;6.30;;;;;;;12.27;70.33;99689.78;4870215;29;20080;-85
2023/05/22 05:21:41;;;;;;;11.35;6.75;;;;;;;12.29;68.73;99679.88;4870921;29;20408;-85
2023/05/22 05:24:25;;;;;;;8.82;6.20;;;;;;;12.23;68.44;99693.78;4870076;29;20456;-85
2023/05/22 05:27:09;;;;;;;8.30;6.25;;;;;;;12.37;68.63;99686.81;4868395;29;20453;-86
2023/05/22 05:29:53;;;;;;;10.10;6.28;;;;;;;12.37;68.48;99674.44;4868402;29;20060;-84
2023/05/22 05:32:37;;;;;;;7.60;6.15;;;;;;;12.42;68.31;99695.78;4870902;29;20052;-87
2023/05/22 05:35:21;;;;;;;8.43;6.05;;;;;;;12.40;68.39;99681.16;4874742;29;20108;-87
2023/05/22 05:38:05;;;;;;;8.07;5.55;;;;;;;12.79;66.87;99692.19;4865314;29;20079;-83
2023/05/22 05:40:49;;;;;;;10.50;6.93;;;;;;;12.48;66.36;99674.94;4869860;29;20093;-86
2023/05/22 05:43:33;;;;;;;7.30;6.20;;;;;;;12.47;66.59;99663.59;4867546;29;20067;-84
2023/05/22 05:46:17;;;;;;;9.15;6.20;;;;;;;12.86;66.44;99691.22;4865138;29;20048;-86
2023/05/22 05:49:08;;;;;;;9.20;6.22;;;;;;;13.00;66.17;99696.56;4870078;29;20392;-84
2023/05/22 05:51:52;;;;;;;9.50;6.03;;;;;;;12.91;65.79;99705.66;4868445;29;20084;-84
2023/05/22 05:54:36;;;;;;;7.20;5.63;;;;;;;13.06;64.43;99689.72;4871570;29;20051;-83
2023/05/22 05:57:20;;;;;;;8.88;6.18;;;;;;;13.28;65.16;99685.97;4865808;29;20090;-84
2023/05/22 06:00:08;;;;;;;6.03;5.38;;;;;;;13.20;63.96;99688.78;4864351;29;20059;-83
2023/05/22 06:02:52;;;;;;;7.57;5.32;;;;;;;13.54;63.76;99696.84;4870847;29;20055;-83
2023/05/22 06:05:37;;;;;;;9.15;5.57;;;;;;;13.50;63.58;99691.16;4873779;29;20144;-84
2023/05/22 06:08:21;;;;;;;6.95;5.38;;;;;;;13.69;63.53;99694.03;4868138;29;20087;-83
2023/05/22 06:11:05;;;;;;;7.15;5.50;;;;;;;13.62;63.14;99695.88;4867121;29;21626;-83
2023/05/22 06:13:49;;;;;;;7.15;5.40;;;;;;;13.80;64.28;99698.75;4868314;29;20519;-83
2023/05/22 06:16:33;;;;;;;7.63;4.90;;;;;;;13.79;63.30;99697.13;4863639;29;20048;-83
2023/05/22 06:19:17;;;;;;;8.05;4.95;;;;;;;13.87;61.64;99704.06;4866260;29;20136;-85
2023/05/22 06:22:02;;;;;;;8.85;4.88;;;;;;;13.85;61.72;99706.06;4869047;29;20095;-84
2023/05/22 06:24:46;;;;;;;6.90;4.78;;;;;;;13.98;61.65;99689.47;4869746;29;20060;-85
2023/05/22 06:27:30;;;;;;;10.98;5.18;;;;;;;14.07;61.55;99709.34;4866627;29;20044;-87
2023/05/22 06:30:15;;;;;;;7.63;5.60;;;;;;;14.07;61.15;99704.06;4869481;29;20060;-89
2023/05/22 06:32:59;;;;;;;4.93;4.15;;;;;;;14.37;61.25;99714.28;4869483;29;20141;-85
2023/05/22 06:35:43;;;;;;;8.80;5.50;;;;;;;14.24;61.46;99704.50;4869680;29;20067;-86
2023/05/22 06:38:27;;;;;;;5.68;4.72;;;;;;;14.37;61.77;99703.72;4869462;29;20048;-86
2023/05/22 06:41:11;;;;;;;8.40;4.85;;;;;;;14.34;61.11;99714.66;4871527;29;20047;-87
2023/05/22 06:43:55;;;;;;;7.78;4.95;;;;;;;14.46;60.69;99693.75;4865160;29;20064;-84
2023/05/22 06:46:39;;;;;;;7.32;5.00;;;;;;;14.33;61.08;99702.47;4864632;29;20105;-85
2023/05/22 06:49:23;;;;;;;6.28;4.45;;;;;;;14.53;59.20;99715.69;4870894;29;20063;-84
2023/05/22 06:52:07;;;;;;;5.85;4.80;;;;;;;14.74;59.77;99716.50;4866936;29;20049;-85
2023/05/22 06:54:51;;;;;;;6.53;4.40;;;;;;;14.89;60.76;99716.28;4872731;29;20060;-86
2023/05/22 06:57:36;;;;;;;7.57;4.82;;;;;;;14.93;59.43;99717.47;4867480;29;20129;-88
2023/05/22 07:00:20;;;;;;;8.98;4.47;;;;;;;14.94;59.59;99718.31;4870924;29;20125;-87
2023/05/22 07:03:05;;;;;;;8.25;4.95;;;;;;;14.93;59.56;99700.81;4868822;29;20044;-86
2023/05/22 07:05:50;;;;;;;5.25;4.15;;;;;;;15.23;60.08;99714.38;4866963;29;20396;-89
2023/05/22 07:08:34;;;;;;;6.38;4.75;;;;;;;15.36;59.63;99732.03;4873023;29;20548;-89
2023/05/22 07:11:18;;;;;;;5.32;4.43;;;;;;;15.37;59.92;99722.28;4869586;29;20498;-88
2023/05/22 07:14:02;;;;;;;7.35;4.30;;;;;;;15.44;58.35;99712.47;4867228;29;20136;-85
2023/05/22 07:16:47;;;;;;;6.72;4.60;;;;;;;15.50;58.79;99708.19;4867913;29;20044;-86
2023/05/22 07:19:31;;;;;;;6.05;4.47;;;;;;;15.35;57.63;99719.81;4872424;29;20044;-89
2023/05/22 07:22:15;;;;;;;7.05;4.50;;;;;;;15.56;57.78;99736.44;4870259;29;20624;-84
2023/05/22 07:24:58;;;;;;;7.18;4.80;;;;;;;15.95;58.65;99744.44;4868531;29;20042;-84
2023/05/22 07:27:42;;;;;;;7.75;5.00;;;;;;;15.59;58.57;99740.50;4866645;29;20441;-88
2023/05/22 07:30:26;;;;;;;6.25;4.78;;;;;;;15.60;58.22;99742.91;4871621;29;20420;-86
2023/05/22 07:33:11;;;;;;;6.85;4.82;;;;;;;15.46;58.19;99746.66;4865807;29;20045;-89
2023/05/22 07:35:55;;;;;;;5.85;4.32;;;;;;;15.75;57.54;99755.06;4868399;29;20048;-84
2023/05/22 07:38:39;;;;;;;7.38;4.35;;;;;;;15.93;58.06;99757.06;4869794;29;20412;-86
2023/05/22 07:41:25;;;;;;;8.70;4.82;;;;;;;16.06;57.21;99762.28;4866217;29;20071;-85
2023/05/22 07:44:09;;;;;;;6.30;4.28;;;;;;;16.01;55.91;99763.94;4872013;29;20076;-86
2023/05/22 07:46:54;;;;;;;6.53;4.45;;;;;;;15.92;56.43;99763.38;4869154;29;20097;-85
2023/05/22 07:49:38;;;;;;;7.65;4.07;;;;;;;15.89;56.25;99755.84;4873557;29;20093;-84
2023/05/22 07:52:22;;;;;;;6.75;4.03;;;;;;;16.23;56.73;99762.59;4869779;29;20129;-87
2023/05/22 07:55:07;;;;;;;5.38;3.60;;;;;;;16.30;56.66;99759.88;4871022;29;20177;-86
2023/05/22 07:57:51;;;;;;;5.88;4.40;;;;;;;16.53;55.70;99766.47;4869998;29;20087;-86
2023/05/22 08:00:35;;;;;;;5.07;4.00;;;;;;;16.63;55.28;99772.06;4873343;29;20049;-85
2023/05/22 08:03:19;;;;;;;8.73;4.25;;;;;;;16.39;54.67;99771.03;4874083;29;20043;-79
2023/05/22 08:06:03;;;;;;;8.88;4.00;;;;;;;17.10;55.13;99771.69;4871984;29;20040;-79
2023/05/22 08:08:47;;;;;;;6.30;3.92;;;;;;;17.16;55.67;99764.69;4873833;29;20059;-81
2023/05/22 08:11:32;;;;;;;5.72;4.43;;;;;;;17.61;54.54;99776.88;4874508;29;20109;-80
2023/05/22 08:14:16;;;;;;;6.15;3.97;;;;;;;17.82;53.10;99767.59;4869816;29;20087;-80
2023/05/22 08:17:00;;;;;;;6.22;3.90;;;;;;;17.77;53.35;99771.94;4866190;29;20052;-80
2023/05/22 08:19:45;;;;;;;6.95;4.03;;;;;;;18.08;52.49;99768.31;4868307;29;20044;-79
2023/05/22 08:22:29;;;;;;;4.28;3.83;;;;;;;18.30;52.78;99769.63;4872036;29;20059;-79
2023/05/22 08:25:14;;;;;;;6.68;4.00;;;;;;;17.51;53.00;99760.63;4868200;29;20044;-80
2023/05/22 08:27:58;;;;;;;4.47;3.55;;;;;;;18.21;53.28;99771.81;4870553;29;20060;-80
2023/05/22 08:30:42;;;;;;;4.40;3.65;;;;;;;17.96;53.07;99770.88;4873233;29;20052;-80
2023/05/22 08:33:26;;;;;;;6.00;4.22;;;;;;;18.07;52.37;99755.25;4870824;29;20432;-80
2023/05/22 08:36:10;;;;;;;5.50;3.45;;;;;;;17.82;52.95;99778.22;4868733;29;20403;-80
2023/05/22 08:38:54;;;;;;;6.15;3.85;;;;;;;17.83;53.20;99779.84;4876055;29;20097;-80
2023/05/22 08:41:39;;;;;;;6.20;3.90;;;;;;;18.28;52.68;99785.81;4874009;29;20055;-80
2023/05/22 08:44:24;;;;;;;4.07;3.67;;;;;;;18.60;53.10;99782.88;4872460;29;20128;-80
2023/05/22 08:47:12;;;;;;;8.00;3.90;;;;;;;18.53;53.01;99787.50;4870562;29;20097;-80
2023/05/22 08:49:58;;;;;;;7.25;3.58;;;;;;;18.57;53.33;99799.28;4875185;29;20282;-80
2023/05/22 08:52:49;;;;;;;5.43;4.00;;;;;;;19.03;52.52;99788.94;4872532;29;20044;-80
2023/05/22 08:55:34;;;;;;;5.03;4.05;;;;;;;18.81;51.91;99789.50;4866243;29;20056;-80
2023/05/22 08:58:18;;;;;;;5.88;3.63;;;;;;;19.34;52.66;99786.13;4868470;29;20113;-80
2023/05/22 09:01:04;;;;;;;5.80;3.53;;;;;;;19.74;52.12;99785.34;4870864;29;20503;-80
2023/05/22 09:03:50;;;;;;;7.22;4.45;;;;;;;19.68;51.96;99792.41;4867481;29;20055;-80
2023/05/22 09:06:33;;;;;;;5.72;3.95;;;;;;;19.98;51.24;99787.94;4873888;29;20084;-80
2023/05/22 09:09:18;;;;;;;7.20;4.28;;;;;;;20.31;50.44;99790.91;4873162;29;20040;-80
2023/05/22 09:12:05;;;;;;;11.05;4.30;;;;;;;21.11;48.88;99785.47;4867735;29;20080;-78
2023/05/22 09:14:50;;;;;;;5.30;4.28;;;;;;;21.01;48.55;99788.81;4872279;29;20403;-79
2023/05/22 09:17:34;;;;;;;7.70;3.83;;;;;;;21.34;48.64;99783.63;4873021;29;20141;-81
2023/05/22 09:20:17;;;;;;;7.15;3.92;;;;;;;20.58;48.25;99799.06;4868396;29;20059;-79
2023/05/22 09:23:10;;;;;;;4.72;3.72;;;;;;;21.89;47.20;99797.91;4870816;29;20154;-80
2023/05/22 09:25:56;;;;;;;5.22;4.72;;;;;;;21.25;48.02;99797.44;4864540;29;20454;-80
2023/05/22 09:28:40;;;;;;;5.43;4.00;;;;;;;21.79;47.10;99792.47;4867997;29;20064;-80
2023/05/22 09:31:24;;;;;;;6.90;4.55;;;;;;;22.19;46.69;99795.81;4866250;29;20044;-78
2023/05/22 09:34:12;;;;;;;7.47;3.97;;;;;;;21.81;47.09;99793.03;4865416;29;20081;-78
2023/05/22 09:37:04;;;;;;;7.43;4.22;;;;;;;20.85;46.78;99785.13;4868170;29;20078;-78
2023/05/22 09:39:51;;;;;;;6.47;4.45;;;;;;;21.29;47.22;99786.25;4863676;29;20082;-82
2023/05/22 09:42:35;;;;;;;6.70;4.50;;;;;;;21.46;46.16;99784.34;4868285;29;20515;-80
2023/05/22 09:45:23;;;;;;;4.85;4.30;;;;;;;21.46;45.70;99788.84;4869324;29;20109;-80
2023/05/22 09:48:08;;;;;;;6.00;4.40;;;;;;;21.32;46.31;99786.56;4869008;29;20092;-75
2023/05/22 09:50:54;;;;;;;4.45;3.78;;;;;;;21.15;45.72;99791.94;4874701;29;20044;-75
2023/05/22 09:53:42;;;;;;;8.18;4.38;;;;;;;21.80;45.36;99792.22;4870348;29;20098;-82
2023/05/22 09:56:26;;;;;;;6.10;4.15;;;;;;;21.81;45.35;99785.00;4868439;29;20470;-80
2023/05/22 09:59:12;;;;;;;6.65;3.92;;;;;;;21.48;45.56;99774.22;4866413;29;20435;-79
2023/05/22 10:01:57;;;;;;;5.32;3.80;;;;;;;22.00;45.01;99779.31;4873141;29;20140;-78
2023/05/22 10:04:42;;;;;;;7.18;4.10;;;;;;;22.02;44.33;99779.88;4866141;29;20093;-77
2023/05/22 10:07:36;;;;;;;7.10;4.55;;;;;;;21.65;44.61;99771.47;4870234;29;20113;-77
2023/05/22 10:10:23;;;;;;;3.95;3.65;;;;;;;21.11;43.43;99769.47;4869929;29;20076;-78
2023/05/22 10:13:07;;;;;;;5.97;4.03;;;;;;;21.30;44.35;99766.50;4866936;29;20097;-79
2023/05/22 10:15:53;;;;;;;4.43;3.78;;;;;;;21.18;43.84;99771.97;4869472;29;20052;-77
2023/05/22 10:18:37;;;;;;;8.00;4.20;;;;;;;20.36;45.31;99775.78;4867997;29;20066;-79
2023/05/22 10:21:21;;;;;;;8.32;3.97;;;;;;;20.29;46.98;99785.81;4871910;29;20047;-78
2023/05/22 10:24:06;;;;;;;6.18;4.60;;;;;;;20.16;46.03;99775.44;4868736;29;20117;-78
2023/05/22 10:26:53;;;;;;;5.28;4.25;;;;;;;20.40;46.86;99774.25;4866738;29;20560;-78
2023/05/22 10:29:43;;;;;;;7.93;3.90;;;;;;;20.02;47.18;99775.75;4867857;29;20152;-78
2023/05/22 10:32:55;;;;;;;6.78;4.28;;;;;;;19.91;47.89;99776.59;4871092;29;20047;-77
2023/05/22 10:35:56;;;;;;;5.25;4.32;;;;;;;19.62;47.84;99777.38;4868768;29;20047;-77
2023/05/22 10:38:56;;;;;;;6.60;4.85;;;;;;;19.87;48.15;99786.09;4869419;29;20048;-78
2023/05/22 10:41:40;;;;;;;11.52;4.65;;;;;;;19.61;48.26;99778.44;4871576;29;20059;-77
2023/05/22 10:44:25;;;;;;;6.47;4.53;;;;;;;19.92;47.76;99783.56;4868954;29;20411;-78
2023/05/22 10:47:11;;;;;;;5.53;4.82;;;;;;;19.87;47.99;99784.25;4867370;29;20056;-78
2023/05/22 10:50:21;;;;;;;7.75;5.05;;;;;;;20.09;48.23;99780.94;4872386;29;20044;-77
2023/05/22 10:53:26;;;;;;;7.22;5.07;;;;;;;19.65;48.95;99778.75;4870351;29;20063;-78
2023/05/22 10:56:20;;;;;;;6.80;5.22;;;;;;;20.10;50.15;99780.69;4866497;29;20129;-78
2023/05/22 10:59:06;;;;;;;9.50;5.47;;;;;;;19.53;50.24;99763.63;4868810;29;20061;-77
2023/05/22 11:01:59;;;;;;;8.27;5.57;;;;;;;19.88;51.43;99759.22;4869120;29;20056;-78
2023/05/22 11:04:43;;;;;;;9.13;6.07;;;;;;;20.27;51.83;99771.94;4869000;29;20055;-77
2023/05/22 11:07:38;;;;;;;10.35;6.25;;;;;;;20.12;50.96;99769.78;4868762;29;20057;-78
2023/05/22 11:10:26;;;;;;;9.52;6.07;;;;;;;19.94;51.19;99762.81;4868980;29;20063;-80
2023/05/22 11:13:11;;;;;;;9.82;6.13;;;;;;;20.05;51.93;99764.63;4866159;29;20060;-79
2023/05/22 11:15:56;;;;;;;11.07;6.70;;;;;;;20.11;52.18;99778.81;4874475;29;20108;-78
2023/05/22 11:18:41;;;;;;;9.45;7.10;;;;;;;20.34;52.61;99767.25;4869923;29;20072;-79
2023/05/22 11:21:28;;;;;;;9.27;6.70;;;;;;;19.99;52.61;99768.22;4874384;29;20035;-77
2023/05/22 11:24:16;;;;;;;11.15;6.60;;;;;;;19.92;52.05;99781.69;4870877;29;20565;-82
2023/05/22 11:27:03;;;;;;;9.57;6.95;;;;;;;20.21;53.22;99762.22;4871956;29;20045;-80
2023/05/22 11:29:48;;;;;;;12.55;7.30;;;;;;;20.15;53.85;99760.50;4869002;29;20526;-81
2023/05/22 11:32:38;;;;;;;11.25;6.80;;;;;;;20.26;55.82;99764.97;4868442;29;20072;-81
2023/05/22 11:35:21;;;;;;;12.85;7.43;;;;;;;20.29;54.39;99753.81;4867459;29;20089;-81
2023/05/22 11:38:06;;;;;;;9.85;7.38;;;;;;;20.00;55.57;99753.06;4872832;29;20047;-83
2023/05/22 11:40:50;;;;;;;13.07;7.07;;;;;;;20.23;55.87;99768.09;4868992;29;20507;-81
2023/05/22 11:43:35;;;;;;;9.85;7.03;;;;;;;20.23;55.96;99762.78;4869957;29;20132;-81
2023/05/22 11:46:20;;;;;;;9.80;6.65;;;;;;;20.38;55.82;99733.69;4860787;29;20100;-81
2023/05/22 11:49:04;;;;;;;10.85;7.25;;;;;;;20.76;55.21;99746.53;4871300;29;20044;-80
2023/05/22 11:51:48;;;;;;;11.27;7.20;;;;;;;20.65;55.28;99745.56;4871717;29;20060;-81
2023/05/22 11:54:33;;;;;;;8.70;6.50;;;;;;;21.01;55.93;99764.78;4875672;29;20499;-82
2023/05/22 11:57:19;;;;;;;9.70;6.85;;;;;;;21.29;54.44;99738.19;4873101;29;20071;-81
2023/05/22 12:00:05;;;;;;;9.65;6.43;;;;;;;20.80;55.72;99743.16;4870729;29;20040;-82
2023/05/22 12:02:49;;;;;;;13.63;7.78;;;;;;;20.90;56.00;99757.69;4875167;29;20048;-81
2023/05/22 12:05:33;;;;;;;9.43;6.60;;;;;;;20.90;55.60;99737.16;4874604;29;20064;-81
2023/05/22 12:08:17;;;;;;;11.98;7.55;;;;;;;20.64;55.01;99743.97;4873283;29;20109;-82
2023/05/22 12:11:04;;;;;;;8.80;5.88;;;;;;;21.01;54.50;99739.97;4872994;29;20065;-82
2023/05/22 12:13:50;;;;;;;12.80;6.32;;;;;;;20.87;55.53;99742.19;4868976;29;20129;-82
2023/05/22 12:16:35;;;;;;;8.57;6.65;;;;;;;21.46;55.67;99733.59;4872263;29;20048;-82
2023/05/22 12:19:20;;;;;;;9.52;6.72;;;;;;;21.42;54.98;99727.16;4878187;29;20160;-82
2023/05/22 12:22:04;;;;;;;12.18;6.88;;;;;;;21.57;54.35;99733.69;4873609;29;20056;-83
2023/05/22 12:24:51;;;;;;;12.15;6.20;;;;;;;21.39;53.57;99724.94;4874466;29;20060;-80
2023/05/22 12:27:36;;;;;;;10.63;6.32;;;;;;;21.06;55.26;99726.69;4869707;29;20079;-80
2023/05/22 12:30:20;;;;;;;8.13;6.63;;;;;;;21.90;53.88;99714.00;4873733;29;20091;-81
2023/05/22 12:33:04;;;;;;;9.88;5.97;;;;;;;22.10;54.05;99716.06;4869839;29;20063;-82
2023/05/22 12:35:50;;;;;;;7.93;6.25;;;;;;;21.69;53.59;99737.06;4867821;29;20048;-80
2023/05/22 12:38:38;;;;;;;9.73;6.38;;;;;;;21.86;53.74;99720.13;4870387;29;20073;-81
2023/05/22 12:41:22;;;;;;;8.77;6.60;;;;;;;21.86;53.90;99738.84;4872497;29;20044;-81
2023/05/22 12:44:06;;;;;;;8.32;6.25;;;;;;;22.37;53.20;99720.53;4867860;29;20041;-81
2023/05/22 12:46:51;;;;;;;8.65;6.38;;;;;;;22.05;53.97;99718.72;4870378;29;20052;-82
2023/05/22 12:49:35;;;;;;;10.43;6.68;;;;;;;21.63;54.15;99722.81;4868362;29;20519;-81
2023/05/22 12:52:19;;;;;;;8.18;6.72;;;;;;;22.12;53.99;99702.47;4870745;29;20510;-80
2023/05/22 12:55:04;;;;;;;9.43;6.07;;;;;;;22.01;53.61;99722.13;4871270;29;20056;-80
2023/05/22 12:57:48;;;;;;;8.65;6.57;;;;;;;22.13;53.99;99708.59;4866776;29;20055;-80